Veere, Netherlands
Current Conditions -  °F | °C
As of 3:55 AM on Saturday 22 Nov 2014 (Local Time) from EHFS Reporting Station
Clear Clear  
Wind Chill: 42°   Ceiling: Unl
Heat Index: 48°   Visibility: 4mi
Dew Point: 45°   Wind: 18mph
Humidity: 87%   Direction: 130°SE
Pressure: 29.97"   Gusts: NA
Location:  51.55°N, 3.67°E
Report Text: EHFS 220255Z AUTO 13016KT 7000 NSC 09/07 Q1015
Loading
Personal Weather Stations






























Interactive Weather Map New forecast layout! Learn more

10-Day Weather Forecast

Advertisements
Track Severe Weather on mobile